Time;durP1;ratioP1;P1;durP2;ratioP2;P2;SDS_P1;SDS_P2;PMS_P1;PMS_P2;Temp;Humidity;BMP_temperature;BMP_pressure;BME280_temperature;BME280_humidity;BME280_pressure;Samples;Min_cycle;Max_cycle;Signal;HPM_P1;HPM_P2
2022/04/28 00:01:45;;;;;;;29.10;17.45;;;;;;;13.94;54.75;101030.66;4880057;28;96854;-82
2022/04/28 00:04:10;;;;;;;30.67;18.05;;;;;;;13.92;54.52;101058.88;4880686;28;96848;-80
2022/04/28 00:06:36;;;;;;;33.85;18.25;;;;;;;13.88;55.08;101060.75;4896008;28;98381;-81
2022/04/28 00:09:02;;;;;;;25.92;16.23;;;;;;;13.95;54.68;101062.25;4879610;28;101278;-82
2022/04/28 00:11:27;;;;;;;37.30;17.75;;;;;;;13.82;54.96;101039.88;4895205;28;97142;-81
2022/04/28 00:13:53;;;;;;;27.98;16.10;;;;;;;13.80;55.01;101053.09;4913205;28;96796;-82
2022/04/28 00:16:18;;;;;;;26.50;16.95;;;;;;;13.74;54.28;101040.13;4879759;28;101387;-81
2022/04/28 00:18:44;;;;;;;31.75;16.10;;;;;;;13.77;55.13;101055.84;4863855;28;101474;-84
2022/04/28 00:21:09;;;;;;;29.88;16.48;;;;;;;13.71;54.93;101050.81;4879615;28;96686;-82
2022/04/28 00:23:35;;;;;;;27.58;17.67;;;;;;;13.58;54.96;101041.59;4880781;28;96881;-81
2022/04/28 00:26:00;;;;;;;28.10;17.33;;;;;;;13.73;54.90;101053.38;4879313;28;98133;-82
2022/04/28 00:28:26;;;;;;;30.98;17.08;;;;;;;13.64;54.43;101058.97;4863841;28;101510;-81
2022/04/28 00:30:51;;;;;;;26.25;16.13;;;;;;;13.57;55.06;101058.34;4879124;28;98306;-81
2022/04/28 00:33:17;;;;;;;24.42;16.13;;;;;;;13.52;55.39;101062.91;4864061;28;97302;-81
2022/04/28 00:35:43;;;;;;;28.88;15.52;;;;;;;13.30;55.38;101029.38;4894743;28;98004;-84
2022/04/28 00:38:11;;;;;;;31.08;16.75;;;;;;;13.56;54.76;101075.09;4879222;28;101439;-82
2022/04/28 00:40:37;;;;;;;30.17;17.52;;;;;;;13.55;54.88;101070.72;4880246;28;96683;-81
2022/04/28 00:43:20;;;;;;;27.92;16.08;;;;;;;13.29;54.97;101053.13;4879160;28;97338;-81
2022/04/28 00:45:50;;;;;;;26.85;16.77;;;;;;;13.51;54.67;101074.38;4878312;28;101363;-83
2022/04/28 00:51:04;;;;;;;38.13;18.00;;;;;;;13.43;54.90;101063.22;4881549;28;96961;-82
2022/04/28 00:53:31;;;;;;;28.38;16.90;;;;;;;13.30;54.99;101068.06;4879714;28;96975;-82
2022/04/28 00:55:57;;;;;;;28.98;18.23;;;;;;;13.38;54.62;101054.59;4862522;28;101068;-82
2022/04/28 00:58:24;;;;;;;31.92;18.25;;;;;;;13.32;54.71;101050.38;4879219;28;101117;-82
2022/04/28 01:00:50;;;;;;;28.55;17.88;;;;;;;13.10;54.86;101021.22;4861938;28;96766;-82
2022/04/28 01:03:16;;;;;;;29.30;18.27;;;;;;;13.34;54.63;101065.25;4863754;28;96972;-81
2022/04/28 01:05:41;;;;;;;32.08;18.65;;;;;;;13.24;55.13;101070.88;4863597;28;100517;-82
2022/04/28 01:08:07;;;;;;;35.38;19.23;;;;;;;13.20;55.55;101069.22;4863214;28;100735;-81
2022/04/28 01:10:37;;;;;;;29.90;19.55;;;;;;;13.12;55.08;101066.88;4879156;28;96727;-81
2022/04/28 01:13:04;;;;;;;30.35;18.85;;;;;;;13.16;54.73;101047.38;4879222;28;97085;-82
2022/04/28 01:15:30;;;;;;;35.15;19.92;;;;;;;13.24;54.76;101055.91;4874895;28;101014;-81
2022/04/28 01:17:57;;;;;;;36.10;20.63;;;;;;;13.14;55.30;101067.66;4863285;28;100560;-81
2022/04/28 01:20:22;;;;;;;30.38;20.05;;;;;;;13.17;54.94;101058.78;4878587;28;97649;-82
2022/04/28 01:22:48;;;;;;;36.25;19.88;;;;;;;13.19;54.93;101059.59;4863551;28;97155;-84
2022/04/28 01:25:14;;;;;;;33.28;20.33;;;;;;;13.05;55.28;101066.19;4878837;28;101563;-81
2022/04/28 01:27:40;;;;;;;35.17;20.45;;;;;;;12.86;55.36;101041.34;4863544;28;100326;-81
2022/04/28 01:30:14;;;;;;;39.47;20.83;;;;;;;12.87;55.78;101067.63;4878620;28;97270;-82
2022/04/28 01:32:45;;;;;;;34.65;19.55;;;;;;;12.96;55.19;101060.34;4878840;28;97416;-82
2022/04/28 01:35:11;;;;;;;34.50;20.45;;;;;;;12.85;55.56;101051.00;4877624;28;101236;-81
2022/04/28 01:37:37;;;;;;;32.47;18.90;;;;;;;12.80;56.03;101063.50;4863688;28;100945;-82
2022/04/28 01:40:11;;;;;;;31.95;20.45;;;;;;;12.65;55.79;101041.13;4879189;28;96934;-82
2022/04/28 01:42:50;;;;;;;32.37;19.60;;;;;;;12.77;56.17;101060.06;4866693;28;97014;-81
2022/04/28 01:45:18;;;;;;;31.52;20.60;;;;;;;12.64;56.09;101065.72;4863710;28;101898;-82
2022/04/28 01:48:03;;;;;;;33.35;20.00;;;;;;;12.57;56.18;101069.47;4878100;28;97061;-81
2022/04/28 01:54:57;;;;;;;32.67;18.45;;;;;;;12.57;55.77;101072.09;4867352;28;97104;-81
2022/04/28 01:56:24;;;;;;;;;;;;;;;12.56;56.25;101077.41;4894711;28;101846;-81
2022/04/28 01:58:57;;;;;;;31.05;18.40;;;;;;;12.61;55.67;101073.72;4864896;28;101992;-82
2022/04/28 02:02:01;;;;;;;31.63;18.83;;;;;;;12.48;56.23;101077.66;4863324;28;97306;-81
2022/04/28 02:04:27;;;;;;;28.58;18.67;;;;;;;12.59;56.16;101077.31;4862611;28;100245;-82
2022/04/28 02:06:54;;;;;;;29.38;18.02;;;;;;;12.45;55.91;101070.69;4862472;28;101075;-84
2022/04/28 02:09:19;;;;;;;32.58;19.08;;;;;;;12.53;55.89;101075.72;4862903;28;101728;-82
2022/04/28 02:11:46;;;;;;;32.70;19.05;;;;;;;12.43;56.29;101080.41;4862750;28;96862;-81
2022/04/28 02:14:32;;;;;;;35.22;19.45;;;;;;;12.45;56.14;101077.75;4881147;28;97197;-82
2022/04/28 02:17:25;;;;;;;29.77;18.35;;;;;;;12.45;55.78;101088.28;4882148;28;100208;-80
2022/04/28 02:19:51;;;;;;;35.42;18.33;;;;;;;12.50;55.57;101082.84;4862701;28;100808;-81
2022/04/28 02:22:17;;;;;;;28.77;17.77;;;;;;;12.36;56.01;101078.88;4878625;28;96700;-82
2022/04/28 02:24:43;;;;;;;27.35;17.25;;;;;;;12.33;56.01;101057.00;4877194;28;97012;-82
2022/04/28 02:27:10;;;;;;;31.52;18.50;;;;;;;12.33;56.18;101071.03;4878095;28;100840;-82
2022/04/28 02:29:36;;;;;;;27.95;17.95;;;;;;;12.27;56.27;101058.06;4862869;28;101096;-82
2022/04/28 02:32:02;;;;;;;30.35;19.02;;;;;;;12.22;56.04;101052.94;4878154;28;96686;-82
2022/04/28 02:34:29;;;;;;;30.67;18.08;;;;;;;12.35;55.94;101069.22;4862813;28;96978;-81
2022/04/28 02:36:56;;;;;;;32.08;18.70;;;;;;;12.25;56.00;101067.78;4877658;28;98581;-85
2022/04/28 02:39:22;;;;;;;28.40;18.77;;;;;;;12.22;56.01;101068.75;4862663;28;100701;-81
2022/04/28 02:41:50;;;;;;;30.77;18.95;;;;;;;12.09;56.15;101063.88;4874502;28;96744;-81
2022/04/28 02:44:16;;;;;;;29.50;17.55;;;;;;;12.13;56.33;101076.00;4839585;29;97347;-82
2022/04/28 02:46:43;;;;;;;32.55;18.85;;;;;;;12.18;56.32;101072.34;4840354;29;101795;-81
2022/04/28 02:49:10;;;;;;;32.83;17.90;;;;;;;12.13;56.22;101073.38;4840356;29;99195;-82
2022/04/28 02:51:37;;;;;;;29.30;18.08;;;;;;;12.14;55.85;101072.50;4840516;29;96685;-81
2022/04/28 02:54:04;;;;;;;28.67;18.60;;;;;;;12.04;56.51;101085.03;4839438;29;96960;-82
2022/04/28 02:56:32;;;;;;;27.58;18.25;;;;;;;12.05;56.43;101075.41;4840360;29;102333;-82
2022/04/28 02:58:57;;;;;;;28.13;18.17;;;;;;;11.98;55.93;101082.56;4840391;29;98062;-85
2022/04/28 03:01:24;;;;;;;25.67;17.98;;;;;;;12.04;56.62;101092.06;4840932;28;97292;-82
2022/04/28 03:03:50;;;;;;;32.05;19.02;;;;;;;11.98;56.23;101085.19;4858785;28;97292;-82
2022/04/28 03:11:48;;;;;;;28.40;17.75;;;;;;;11.77;56.55;101098.00;4860988;28;97159;-82
2022/04/28 03:14:16;;;;;;;27.67;17.33;;;;;;;11.77;56.70;101091.88;4843319;28;96930;-81
2022/04/28 03:16:42;;;;;;;25.10;17.05;;;;;;;11.61;56.76;101086.19;4843122;28;102023;-83
2022/04/28 03:19:08;;;;;;;27.33;16.27;;;;;;;11.64;56.87;101098.38;4858367;28;101476;-80
2022/04/28 03:21:35;;;;;;;26.20;16.77;;;;;;;11.71;56.89;101097.31;4843073;28;97100;-82
2022/04/28 03:24:02;;;;;;;27.08;16.38;;;;;;;11.44;56.35;101067.34;4874454;28;96974;-82
2022/04/28 03:26:29;;;;;;;25.33;15.15;;;;;;;11.60;56.44;101096.72;4842957;28;102039;-81
2022/04/28 03:28:56;;;;;;;23.65;15.10;;;;;;;11.53;56.59;101099.50;4843206;28;101656;-82
2022/04/28 03:31:22;;;;;;;29.80;16.27;;;;;;;11.47;56.73;101093.56;4839126;29;96963;-81
2022/04/28 03:34:06;;;;;;;27.00;16.08;;;;;;;11.47;57.05;101101.44;4853188;29;96567;-82
2022/04/28 03:36:51;;;;;;;26.83;16.20;;;;;;;11.46;56.84;101118.09;4855286;29;98627;-80
2022/04/28 03:39:20;;;;;;;35.45;16.83;;;;;;;11.42;56.85;101105.94;4857728;28;101853;-82
2022/04/28 03:41:46;;;;;;;31.38;15.73;;;;;;;11.51;56.67;101111.81;4840043;29;96684;-81
2022/04/28 03:44:12;;;;;;;31.58;16.52;;;;;;;11.48;56.45;101111.06;4857669;28;97080;-82
2022/04/28 03:46:38;;;;;;;22.73;14.63;;;;;;;11.30;56.19;101080.84;4858390;28;99293;-81
2022/04/28 03:49:04;;;;;;;25.80;15.07;;;;;;;11.34;56.55;101116.66;4858045;28;101503;-82
2022/04/28 03:51:30;;;;;;;23.13;15.25;;;;;;;11.39;56.41;101114.78;4858141;28;97423;-81
2022/04/28 03:54:00;;;;;;;31.70;14.82;;;;;;;11.29;56.38;101126.44;4842726;28;97054;-81
2022/04/28 03:56:30;;;;;;;34.35;15.77;;;;;;;11.13;56.66;101098.78;4835382;29;102288;-84
2022/04/28 03:58:59;;;;;;;20.65;14.13;;;;;;;11.13;56.66;101106.66;4839283;29;99321;-81
2022/04/28 04:01:25;;;;;;;26.70;14.73;;;;;;;11.13;57.01;101125.91;4822666;29;96725;-81
2022/04/28 04:04:06;;;;;;;23.17;14.23;;;;;;;11.15;56.83;101132.00;4856359;28;96806;-82
2022/04/28 04:06:36;;;;;;;23.90;15.18;;;;;;;11.11;57.22;101140.84;4854619;29;101805;-81
2022/04/28 04:09:24;;;;;;;24.92;14.65;;;;;;;11.14;57.05;101132.91;4847321;29;98357;-82
2022/04/28 04:11:50;;;;;;;26.05;14.60;;;;;;;11.10;57.29;101139.13;4840321;28;97103;-82
2022/04/28 04:14:17;;;;;;;26.55;14.10;;;;;;;11.08;57.22;101133.94;4842307;28;96986;-82
2022/04/28 04:16:43;;;;;;;24.05;14.10;;;;;;;11.07;57.13;101126.91;4856963;28;102365;-82
2022/04/28 04:19:12;;;;;;;24.60;15.35;;;;;;;11.01;56.94;101119.19;4872840;28;99636;-82
2022/04/28 04:21:43;;;;;;;24.65;14.00;;;;;;;11.08;57.23;101125.16;4849167;28;96919;-82
2022/04/28 04:24:09;;;;;;;23.33;14.73;;;;;;;10.98;56.94;101116.63;4834821;28;96884;-82
2022/04/28 04:26:38;;;;;;;21.55;13.85;;;;;;;11.26;56.66;101144.91;4849742;28;101793;-82
2022/04/28 04:29:05;;;;;;;22.40;13.32;;;;;;;11.20;56.93;101143.28;4833929;28;99340;-83
2022/04/28 04:34:53;;;;;;;22.90;13.07;;;;;;;11.33;56.48;101156.97;4849871;28;97224;-82
2022/04/28 04:37:22;;;;;;;20.38;12.32;;;;;;;11.28;57.11;101148.34;4823636;29;101763;-82
2022/04/28 04:39:49;;;;;;;24.23;13.85;;;;;;;11.48;56.16;101150.50;4838960;29;101186;-82
2022/04/28 04:42:15;;;;;;;22.60;14.50;;;;;;;11.59;56.02;101169.50;4825395;29;97579;-82
2022/04/28 04:44:41;;;;;;;17.45;12.52;;;;;;;11.78;55.22;101168.16;4880329;28;96910;-82
2022/04/28 04:47:08;;;;;;;18.52;12.27;;;;;;;11.76;55.36;101163.81;4872798;28;102036;-83
2022/04/28 04:49:54;;;;;;;19.58;11.68;;;;;;;11.63;56.29;101158.00;4875772;28;102235;-82
2022/04/28 04:52:33;;;;;;;21.75;11.10;;;;;;;11.72;56.25;101173.56;4859466;28;97231;-81
2022/04/28 04:55:02;;;;;;;20.48;11.77;;;;;;;11.60;56.36;101144.06;4883019;28;97479;-82
2022/04/28 04:57:28;;;;;;;18.45;11.45;;;;;;;12.11;55.72;101177.84;4860550;28;101061;-81
2022/04/28 04:59:54;;;;;;;21.52;12.68;;;;;;;12.14;55.84;101177.78;4873573;28;97329;-83
2022/04/28 05:02:23;;;;;;;22.27;11.55;;;;;;;12.21;56.32;101174.91;4869879;28;97181;-81
2022/04/28 05:05:08;;;;;;;18.67;10.65;;;;;;;12.34;56.03;101179.88;4860049;28;96913;-84
2022/04/28 05:08:00;;;;;;;34.05;12.52;;;;;;;12.30;55.97;101143.97;4869933;28;97373;-81
2022/04/28 05:10:26;;;;;;;20.33;10.13;;;;;;;12.66;56.31;101176.31;4872047;28;101657;-82
2022/04/28 05:12:52;;;;;;;17.67;10.90;;;;;;;12.85;55.42;101168.72;4857367;28;98861;-81
2022/04/28 05:15:24;;;;;;;17.58;10.88;;;;;;;12.99;55.29;101147.22;4870575;28;96936;-82
2022/04/28 05:18:13;;;;;;;17.80;10.13;;;;;;;13.32;54.82;101192.78;4878267;28;102041;-82
2022/04/28 05:20:50;;;;;;;19.35;10.48;;;;;;;13.57;54.63;101169.13;4861367;28;101822;-81
2022/04/28 05:23:34;;;;;;;20.25;10.50;;;;;;;13.87;54.29;101183.06;4895220;28;96777;-82
2022/04/28 05:26:22;;;;;;;22.45;10.73;;;;;;;14.17;53.73;101178.50;4845711;28;97390;-81
2022/04/28 05:29:05;;;;;;;16.70;8.43;;;;;;;14.27;53.62;101179.03;4867578;28;99986;-82
2022/04/28 05:31:51;;;;;;;13.52;7.80;;;;;;;14.62;52.06;101174.28;4880927;28;101385;-83
2022/04/28 05:34:35;;;;;;;15.00;7.38;;;;;;;15.07;50.66;101187.53;4880045;28;98140;-82
2022/04/28 05:37:14;;;;;;;18.50;7.90;;;;;;;15.22;49.60;101177.28;4877966;28;97445;-82
2022/04/28 05:39:41;;;;;;;13.30;7.82;;;;;;;15.47;48.32;101175.34;4874470;28;101353;-82
2022/04/28 05:42:08;;;;;;;20.58;8.13;;;;;;;15.80;47.34;101189.00;4888217;28;101116;-82
2022/04/28 05:47:22;;;;;;;14.30;7.20;;;;;;;16.27;46.90;101183.44;4866330;28;96915;-82
2022/04/28 05:49:48;;;;;;;12.00;7.55;;;;;;;16.43;46.33;101183.63;4848101;28;101230;-82
2022/04/28 05:52:15;;;;;;;14.88;8.38;;;;;;;16.49;46.49;101182.47;4833785;28;99755;-82
2022/04/28 05:54:41;;;;;;;17.42;8.05;;;;;;;16.62;45.09;101193.41;4864039;28;97275;-82
2022/04/28 05:57:07;;;;;;;13.90;7.55;;;;;;;16.56;45.69;101202.50;4853147;28;96865;-82
2022/04/28 05:59:34;;;;;;;23.73;9.27;;;;;;;16.50;45.82;101202.78;4838401;29;101840;-82
2022/04/28 06:02:18;;;;;;;14.85;8.48;;;;;;;16.59;45.86;101220.06;4840673;29;97097;-81
2022/04/28 06:04:44;;;;;;;12.80;8.02;;;;;;;16.64;45.92;101210.97;4825801;29;97158;-82
2022/04/28 06:07:11;;;;;;;18.65;7.47;;;;;;;16.60;45.99;101209.38;4825634;29;97049;-86
2022/04/28 06:09:41;;;;;;;17.13;8.02;;;;;;;16.35;46.06;101217.56;4837219;28;101719;-82
2022/04/28 06:12:08;;;;;;;12.43;9.07;;;;;;;16.37;45.87;101223.63;4873116;28;101333;-82
2022/04/28 06:14:54;;;;;;;15.63;7.65;;;;;;;16.80;45.11;101218.25;4855103;29;96882;-82
2022/04/28 06:17:42;;;;;;;19.55;7.75;;;;;;;16.79;44.90;101221.84;4857109;28;96896;-82
2022/04/28 06:20:09;;;;;;;15.85;8.43;;;;;;;17.04;43.43;101219.75;4856388;29;101564;-82
2022/04/28 06:22:53;;;;;;;15.85;7.97;;;;;;;17.33;42.79;101223.69;4855519;28;98896;-84
2022/04/28 06:25:20;;;;;;;14.98;7.90;;;;;;;17.63;42.41;101210.72;4844204;28;96861;-83
2022/04/28 06:27:47;;;;;;;15.23;7.47;;;;;;;18.13;41.62;101219.78;4859667;28;97581;-82
2022/04/28 06:30:13;;;;;;;13.00;7.05;;;;;;;18.46;40.81;101217.16;4843363;28;100914;-87
2022/04/28 06:32:41;;;;;;;14.50;7.82;;;;;;;18.83;40.65;101220.53;4843350;28;101742;-81
2022/04/28 06:35:33;;;;;;;10.93;7.47;;;;;;;19.37;39.54;101221.09;4861892;28;97307;-82
2022/04/28 06:38:00;;;;;;;13.50;6.93;;;;;;;19.72;38.67;101223.53;4844223;28;96898;-82
2022/04/28 06:40:26;;;;;;;13.70;6.93;;;;;;;20.12;38.10;101224.72;4842591;28;102184;-83
2022/04/28 06:42:52;;;;;;;14.90;6.65;;;;;;;20.53;37.58;101231.19;4844027;28;101165;-85
2022/04/28 06:45:24;;;;;;;13.07;7.07;;;;;;;20.91;36.84;101227.97;4895430;28;97037;-83
2022/04/28 06:48:08;;;;;;;16.92;7.40;;;;;;;21.09;36.57;101215.25;4884244;28;97258;-86
2022/04/28 06:50:39;;;;;;;;;;;;;;;21.45;35.58;101225.41;4890588;28;98297;-84
2022/04/28 06:53:23;;;;;;;9.75;5.72;;;;;;;21.94;35.39;101219.47;4895788;28;97104;-85
2022/04/28 06:55:55;;;;;;;10.93;6.05;;;;;;;22.15;34.67;101226.03;4898656;28;97329;-85
2022/04/28 06:58:22;;;;;;;11.45;7.07;;;;;;;22.32;34.44;101219.56;4870546;28;97081;-85
2022/04/28 07:00:49;;;;;;;10.05;6.45;;;;;;;22.74;33.75;101208.63;4862005;28;101620;-84
2022/04/28 07:03:16;;;;;;;13.00;6.20;;;;;;;23.03;32.77;101227.97;4847074;28;101992;-85
2022/04/28 07:05:43;;;;;;;10.43;5.57;;;;;;;23.36;32.29;101223.81;4893519;28;97051;-84
2022/04/28 07:08:09;;;;;;;10.55;5.80;;;;;;;23.63;32.17;101231.66;4885199;28;97086;-82
2022/04/28 07:10:41;;;;;;;8.70;5.45;;;;;;;23.89;31.62;101219.84;4891526;28;100857;-81
2022/04/28 07:13:08;;;;;;;11.02;5.78;;;;;;;24.21;30.84;101223.72;4877362;28;101414;-83
2022/04/28 07:16:00;;;;;;;18.77;5.85;;;;;;;24.56;30.64;101227.22;4879135;28;96839;-80
2022/04/28 07:18:44;;;;;;;11.32;5.13;;;;;;;24.91;30.25;101222.72;4873443;28;97470;-86
2022/04/28 07:21:10;;;;;;;13.15;4.47;;;;;;;25.09;29.24;101215.84;4863991;28;101218;-85
2022/04/28 07:23:36;;;;;;;6.75;4.80;;;;;;;25.42;28.11;101228.38;4866065;28;100711;-84
2022/04/28 07:26:02;;;;;;;8.18;3.65;;;;;;;25.54;28.11;101231.91;4896628;28;97350;-83
2022/04/28 07:28:28;;;;;;;9.82;4.75;;;;;;;25.88;27.86;101232.63;4880179;28;97134;-82
2022/04/28 07:31:00;;;;;;;7.30;4.25;;;;;;;25.98;27.54;101230.03;4878626;28;97982;-85
2022/04/28 07:33:45;;;;;;;9.90;4.38;;;;;;;26.18;27.81;101225.66;4903711;28;96522;-83
2022/04/28 07:36:30;;;;;;;8.30;4.82;;;;;;;26.54;26.73;101213.56;4890364;28;97175;-86
2022/04/28 07:39:14;;;;;;;8.00;4.28;;;;;;;26.76;26.70;101231.38;4877930;28;97121;-82
2022/04/28 07:41:58;;;;;;;7.10;4.35;;;;;;;27.28;26.04;101231.28;4879835;28;97303;-81
2022/04/28 07:44:24;;;;;;;4.75;3.70;;;;;;;27.61;25.35;101226.50;4860397;28;101315;-82
2022/04/28 07:46:50;;;;;;;8.50;3.38;;;;;;;27.68;25.33;101222.25;4902202;28;97267;-82
2022/04/28 07:49:16;;;;;;;7.15;3.60;;;;;;;27.64;25.34;101228.94;4846961;28;97340;-82
2022/04/28 07:51:41;;;;;;;6.80;3.05;;;;;;;28.04;24.30;101219.84;4873321;28;102206;-82
2022/04/28 07:54:07;;;;;;;10.35;2.95;;;;;;;28.39;24.26;101219.19;4869369;28;100535;-83
2022/04/28 07:56:33;;;;;;;5.25;2.70;;;;;;;28.51;23.69;101207.28;4891925;28;97449;-83
2022/04/28 07:58:59;;;;;;;11.80;3.72;;;;;;;28.73;23.34;101208.72;4888989;28;97107;-77
2022/04/28 08:01:44;;;;;;;4.15;2.60;;;;;;;29.05;22.41;101219.13;4869596;28;97531;-78
2022/04/28 08:04:10;;;;;;;3.63;2.10;;;;;;;29.27;22.36;101219.72;4871515;28;101719;-77
2022/04/28 08:06:38;;;;;;;3.45;2.15;;;;;;;29.46;22.12;101227.69;4890660;28;97191;-81
2022/04/28 08:09:04;;;;;;;4.78;2.60;;;;;;;29.48;21.85;101205.91;4888820;28;97234;-81
2022/04/28 08:11:30;;;;;;;3.72;2.50;;;;;;;29.65;21.74;101218.63;4870267;28;101921;-79
2022/04/28 08:13:56;;;;;;;6.85;2.50;;;;;;;29.86;21.56;101222.84;4870274;28;100376;-79
2022/04/28 08:16:27;;;;;;;3.97;2.55;;;;;;;30.07;21.25;101228.78;4857433;28;97735;-79
2022/04/28 08:18:54;;;;;;;3.50;2.28;;;;;;;30.07;21.69;101231.47;4875924;28;97369;-81
2022/04/28 08:21:47;;;;;;;4.32;2.40;;;;;;;30.41;21.12;101214.50;4879949;28;97878;-81
2022/04/28 08:24:13;;;;;;;3.75;2.30;;;;;;;30.58;21.24;101213.56;4863015;28;101557;-79
2022/04/28 08:26:42;;;;;;;8.60;2.70;;;;;;;30.88;20.78;101206.78;4851025;28;97219;-79
2022/04/28 08:29:08;;;;;;;11.63;2.88;;;;;;;31.20;20.67;101226.06;4870360;28;97131;-81
2022/04/28 08:31:43;;;;;;;4.97;2.13;;;;;;;31.45;20.35;101227.84;4859983;28;99231;-80
2022/04/28 08:34:11;;;;;;;7.15;2.92;;;;;;;31.30;20.30;101226.75;4857055;28;102158;-81
2022/04/28 08:36:37;;;;;;;5.47;2.22;;;;;;;31.51;20.41;101224.47;4868770;28;97867;-81
2022/04/28 08:39:04;;;;;;;5.35;2.80;;;;;;;31.70;20.80;101217.00;4866247;28;97044;-80
2022/04/28 08:41:33;;;;;;;5.95;2.83;;;;;;;31.94;20.42;101222.47;4871663;28;101391;-81
2022/04/28 08:44:30;;;;;;;11.10;3.30;;;;;;;31.89;20.19;101219.41;4867042;28;97744;-80
2022/04/28 08:47:15;;;;;;;7.15;2.47;;;;;;;32.00;20.69;101221.81;4868472;28;97235;-81
2022/04/28 08:49:49;;;;;;;4.68;2.10;;;;;;;32.02;20.83;101219.75;4873279;28;97928;-80
2022/04/28 08:52:40;;;;;;;9.60;5.13;;;;;;;32.52;19.82;101230.56;4865085;28;101594;-81
2022/04/28 08:55:19;;;;;;;4.00;2.33;;;;;;;32.49;19.17;101220.03;4864699;28;99817;-81
2022/04/28 08:57:45;;;;;;;3.75;2.33;;;;;;;32.62;19.11;101215.75;4866719;28;97883;-81
2022/04/28 09:00:11;;;;;;;5.13;3.13;;;;;;;32.82;19.63;101218.06;4860025;28;97238;-84
2022/04/28 09:03:11;;;;;;;4.78;2.63;;;;;;;32.64;19.80;101219.16;4884093;28;99391;-85
2022/04/28 09:06:28;;;;;;;4.93;3.10;;;;;;;32.65;19.60;101222.72;4890892;28;99256;-85
2022/04/28 09:09:32;;;;;;;5.50;2.70;;;;;;;32.65;19.85;101225.44;4894933;28;97287;-85
2022/04/28 09:12:20;;;;;;;5.28;2.30;;;;;;;32.59;19.29;101224.25;4878997;28;97404;-84
2022/04/28 09:15:12;;;;;;;4.65;2.75;;;;;;;32.57;19.44;101212.72;4864369;28;99882;-83
2022/04/28 09:17:41;;;;;;;4.65;2.47;;;;;;;32.85;19.78;101220.44;4874604;28;101608;-84
2022/04/28 09:20:13;;;;;;;3.88;2.15;;;;;;;32.98;20.51;101219.84;4864989;28;97331;-85
2022/04/28 09:22:44;;;;;;;8.48;2.72;;;;;;;32.87;19.25;101202.06;4890309;28;96868;-84
2022/04/28 09:25:15;;;;;;;5.97;2.50;;;;;;;33.04;19.53;101221.91;4891103;28;101611;-85
2022/04/28 09:27:41;;;;;;;5.78;2.75;;;;;;;33.02;19.44;101215.81;4876387;28;98240;-83
2022/04/28 09:30:11;;;;;;;5.20;2.40;;;;;;;32.79;19.16;101226.59;4872336;28;97522;-89
2022/04/28 09:32:50;;;;;;;3.85;2.38;;;;;;;32.74;19.83;101228.97;4880145;28;96795;-85
2022/04/28 09:35:50;;;;;;;5.45;2.55;;;;;;;32.41;19.85;101234.47;4875181;28;98445;-87
2022/04/28 09:38:29;;;;;;;4.60;2.63;;;;;;;32.29;20.16;101225.84;4869818;28;100763;-84
2022/04/28 09:43:39;;;;;;;7.90;2.55;;;;;;;31.44;20.17;101228.84;4878957;28;96968;-88
2022/04/28 09:46:08;;;;;;;4.78;3.08;;;;;;;31.47;20.25;101228.50;4858737;28;99799;-90
2022/04/28 09:48:36;;;;;;;5.85;2.85;;;;;;;31.41;20.94;101229.16;4889436;28;101530;-89
2022/04/28 09:51:07;;;;;;;3.47;2.60;;;;;;;31.06;21.06;101217.53;4860626;28;96812;-83
2022/04/28 09:53:51;;;;;;;3.80;2.58;;;;;;;30.59;20.80;101217.97;4889713;28;96918;-79
2022/04/28 09:56:39;;;;;;;6.13;3.10;;;;;;;30.65;21.53;101233.56;4880455;28;97851;-83
2022/04/28 09:59:31;;;;;;;8.18;3.33;;;;;;;30.38;21.02;101228.34;4874106;28;101552;-84
2022/04/28 10:01:58;;;;;;;8.18;3.03;;;;;;;29.99;21.71;101209.75;4861036;28;97320;-83
2022/04/28 10:04:27;;;;;;;5.53;2.83;;;;;;;29.76;21.31;101222.94;4877032;28;97202;-83
2022/04/28 10:07:01;;;;;;;7.30;2.75;;;;;;;29.56;21.59;101231.19;4889844;28;98307;-83
2022/04/28 10:09:32;;;;;;;5.38;2.38;;;;;;;29.31;21.62;101211.13;4903260;28;100773;-84
2022/04/28 10:12:07;;;;;;;4.53;2.40;;;;;;;29.30;21.75;101227.53;4890529;28;96945;-87
2022/04/28 10:14:49;;;;;;;7.95;3.17;;;;;;;29.18;22.29;101232.31;4886906;28;97352;-87
2022/04/28 10:17:18;;;;;;;6.65;2.45;;;;;;;28.60;22.45;101203.69;4900551;28;101888;-86
2022/04/28 10:19:50;;;;;;;7.90;2.67;;;;;;;28.35;22.48;101234.00;4879867;28;98442;-88
2022/04/28 10:22:39;;;;;;;2.78;1.83;;;;;;;28.16;23.26;101230.34;4883385;28;97070;-88
2022/04/28 10:34:17;;;;;;;5.18;2.72;;;;;;;26.85;23.63;101208.16;4878058;28;96770;-90
2022/04/28 10:36:54;;;;;;;4.30;2.22;;;;;;;26.81;24.26;101223.72;4880784;28;97054;-91
2022/04/28 10:39:32;;;;;;;4.03;2.40;;;;;;;26.69;25.03;101232.91;4864608;28;101069;-89
2022/04/28 10:41:57;;;;;;;5.68;2.45;;;;;;;26.48;25.07;101230.22;4891603;28;101433;-89
2022/04/28 10:44:29;;;;;;;5.95;2.50;;;;;;;26.04;24.59;101182.94;4807773;28;1660217;-88
2022/04/28 10:46:58;;;;;;;3.03;2.28;;;;;;;26.25;25.06;101236.75;4901729;28;97245;-84
2022/04/28 10:49:25;;;;;;;13.30;3.70;;;;;;;26.09;25.64;101232.69;4883269;28;101372;-90
2022/04/28 10:51:56;;;;;;;5.55;2.80;;;;;;;25.83;25.51;101236.69;4864703;28;101133;-89
2022/04/28 10:54:23;;;;;;;6.03;3.03;;;;;;;25.65;25.81;101226.47;4864935;28;97456;-94
2022/04/28 10:57:00;;;;;;;5.63;2.92;;;;;;;25.38;25.76;101175.88;4881091;28;97003;-93
2022/04/28 10:59:34;;;;;;;8.52;3.10;;;;;;;25.37;26.32;101224.38;4880642;28;101298;-87
2022/04/28 11:02:15;;;;;;;4.32;2.55;;;;;;;25.22;25.90;101224.66;4895498;28;100888;-91
2022/04/28 11:04:49;;;;;;;6.57;2.50;;;;;;;25.14;26.09;101219.03;4897287;28;98024;-94
2022/04/28 11:07:19;;;;;;;5.88;2.70;;;;;;;24.86;26.84;101185.47;4883601;28;96662;-94
2022/04/28 11:09:51;;;;;;;6.22;2.53;;;;;;;24.97;26.86;101196.19;4881804;28;101156;-93
2022/04/28 11:12:18;;;;;;;5.32;2.90;;;;;;;24.96;26.10;101215.13;4867869;28;100494;-87
2022/04/28 11:14:46;;;;;;;8.85;2.72;;;;;;;24.92;27.38;101222.56;4872557;28;97609;-83
2022/04/28 11:17:13;;;;;;;8.57;2.92;;;;;;;24.73;26.82;101215.16;4868005;28;97419;-80
2022/04/28 11:19:40;;;;;;;6.18;2.47;;;;;;;24.64;27.70;101218.56;4878073;28;101149;-81
2022/04/28 11:22:05;;;;;;;3.55;2.10;;;;;;;24.67;27.10;101223.69;4886878;28;100735;-84
2022/04/28 11:24:32;;;;;;;5.95;2.45;;;;;;;24.55;27.20;101214.78;4858206;28;96832;-86
2022/04/28 11:27:21;;;;;;;2.70;2.28;;;;;;;24.48;27.23;101210.00;4893576;28;97358;-91
2022/04/28 11:30:18;;;;;;;6.53;2.67;;;;;;;24.49;27.42;101230.50;4892051;28;99614;-91
2022/04/28 11:33:02;;;;;;;11.52;2.85;;;;;;;24.30;27.17;101221.16;4878275;28;98008;-91
2022/04/28 11:35:31;;;;;;;10.27;2.50;;;;;;;24.14;27.19;101200.06;4873220;28;98078;-92
2022/04/28 11:37:56;;;;;;;4.72;2.65;;;;;;;24.21;27.43;101226.41;4870030;28;96767;-92
2022/04/28 11:40:25;;;;;;;6.88;2.63;;;;;;;24.08;27.99;101229.16;4884872;28;97507;-92
2022/04/28 11:42:58;;;;;;;6.60;2.95;;;;;;;23.70;28.27;101173.94;4894161;28;98314;-92
2022/04/28 11:45:24;;;;;;;4.60;2.58;;;;;;;24.02;28.17;101230.47;4902075;28;97416;-90
2022/04/28 11:47:51;;;;;;;5.18;2.50;;;;;;;23.91;28.39;101225.94;4898654;28;96805;-89
2022/04/28 11:50:21;;;;;;;6.57;2.95;;;;;;;23.85;28.24;101215.69;4872507;28;99945;-89
2022/04/28 11:52:58;;;;;;;5.25;2.53;;;;;;;23.81;28.06;101232.13;4866116;28;100601;-91
2022/04/28 11:55:26;;;;;;;7.85;2.80;;;;;;;23.72;27.83;101223.78;4864085;28;96857;-91
2022/04/28 11:57:53;;;;;;;7.50;2.35;;;;;;;23.69;28.09;101229.34;4878453;28;97407;-91
2022/04/28 12:00:19;;;;;;;5.43;2.88;;;;;;;23.48;28.12;101205.03;4892522;28;98448;-91
2022/04/28 12:02:44;;;;;;;7.90;3.15;;;;;;;23.45;28.31;101221.31;4859785;28;101161;-91
2022/04/28 12:05:25;;;;;;;7.72;3.00;;;;;;;23.39;28.40;101228.97;4880374;28;96735;-89